Lahore Weather



Lahore's Current Weather

Temprature 20.44o smoke

smoke

Rain: 0 %

Min Temprature20o
Max Temprature21o
Humidity73
Wind Speed2.6 m/h
Sun Rise05:28:07
Sun Set18:34:29
Current Time: 21-Apr-2019 05:49:33
Lat/Lon: 31.52, 74.33




Lahore's Geo Location



Lahore's Weather Forecast

Time Overall Temp Min Temp Max Temp Humidity Wind Speed Rain
21-Apr-2019 (Sun)
08:00:00 clear sky 25.640 25.640 29.249 33 2.01 m/h 0 %
11:00:00 clear sky 32.340 32.340 34.750 21 1.39 m/h 0 %
14:00:00 clear sky 35.450 35.450 36.650 18 1.83 m/h 0 %
17:00:00 clear sky 36.350 36.350 36.350 17 1.91 m/h 0 %
20:00:00 clear sky 31.750 31.750 31.750 24 2.39 m/h 0 %
23:00:00 clear sky 29.420 29.420 29.420 30 2.22 m/h 0 %
22-Apr-2019 (Mon)
02:00:00 clear sky 27.770 27.770 27.770 34 1.88 m/h 0 %
05:00:00 clear sky 26.154 26.154 26.154 38 1.84 m/h 0 %
08:00:00 clear sky 30.756 30.756 30.756 30 1.31 m/h 0 %
11:00:00 clear sky 36.820 36.820 36.820 20 1.1 m/h 0 %
14:00:00 clear sky 38.615 38.615 38.615 16 3.33 m/h 0 %
17:00:00 clear sky 38.531 38.531 38.531 15 3.43 m/h 0 %
20:00:00 clear sky 33.150 33.150 33.150 22 2.69 m/h 0 %
23:00:00 clear sky 30.596 30.596 30.596 26 2.45 m/h 0 %
23-Apr-2019 (Tue)
02:00:00 clear sky 28.477 28.477 28.477 29 2.37 m/h 0 %
05:00:00 clear sky 26.876 26.876 26.876 31 2.01 m/h 0 %
08:00:00 clear sky 31.367 31.367 31.367 24 0.43 m/h 0 %
11:00:00 scattered clouds 37.350 37.350 37.350 15 2.37 m/h 0 %
14:00:00 scattered clouds 40.450 40.450 40.450 12 2.99 m/h 0 %
17:00:00 few clouds 40.350 40.350 40.350 11 2.16 m/h 0 %
20:00:00 clear sky 34.428 34.428 34.428 18 3.52 m/h 0 %
23:00:00 clear sky 31.850 31.850 31.850 22 3.07 m/h 0 %
24-Apr-2019 (Wed)
02:00:00 broken clouds 29.982 29.982 29.982 23 3.07 m/h 0 %
05:00:00 overcast clouds 28.834 28.834 28.834 19 2.62 m/h 0 %
08:00:00 few clouds 33.650 33.650 33.650 14 3.59 m/h 0 %
11:00:00 clear sky 40.208 40.208 40.208 11 3.28 m/h 0 %
14:00:00 clear sky 43.450 43.450 43.450 8 5.28 m/h 0 %
17:00:00 broken clouds 41.350 41.350 41.350 9 4.62 m/h 0 %
20:00:00 scattered clouds 35.855 35.855 35.855 9 4.79 m/h 0 %
23:00:00 few clouds 30.845 30.845 30.845 20 1.69 m/h 0 %
25-Apr-2019 (Thu)
02:00:00 scattered clouds 28.350 28.350 28.350 32 6.02 m/h 0 %
05:00:00 broken clouds 28.072 28.072 28.072 29 5.34 m/h 0 %
08:00:00 overcast clouds 32.120 32.120 32.120 19 5.27 m/h 0 %
11:00:00 overcast clouds 36.490 36.490 36.490 14 5.84 m/h 0 %
14:00:00 broken clouds 39.650 39.650 39.650 11 3.36 m/h 0 %
17:00:00 scattered clouds 39.111 39.111 39.111 12 1.8 m/h 0 %
20:00:00 clear sky 33.725 33.725 33.725 15 2.18 m/h 0 %
23:00:00 scattered clouds 31.543 31.543 31.543 17 1.98 m/h 0 %
26-Apr-2019 (Fri)
02:00:00 broken clouds 28.932 28.932 28.932 20 0.65 m/h 0 %
05:00:00 broken clouds 27.256 27.256 27.256 22 3.28 m/h 0 %


Lahore's Tourist Spots

Museums in Lahore

Historical Places in Lahore

Famous Cities (60)